createdAt,value
2017-07-01T00:00:09.355Z,18.74
2017-07-01T00:02:36.752Z,18.68
2017-07-01T00:05:04.169Z,18.72
2017-07-01T00:07:31.556Z,18.72
2017-07-01T00:09:58.952Z,18.76
2017-07-01T00:12:26.451Z,18.68
2017-07-01T00:14:53.846Z,18.68
2017-07-01T00:17:21.268Z,18.58
2017-07-01T00:19:48.658Z,18.55
2017-07-01T00:22:16.075Z,18.64
2017-07-01T00:24:43.467Z,18.58
2017-07-01T00:27:10.919Z,18.69
2017-07-01T00:29:38.315Z,18.64
2017-07-01T00:32:05.736Z,18.65
2017-07-01T00:34:33.135Z,18.68
2017-07-01T00:37:00.551Z,18.71
2017-07-01T00:39:27.993Z,18.68
2017-07-01T00:41:55.409Z,18.74
2017-07-01T00:44:22.799Z,18.76
2017-07-01T00:46:50.210Z,18.74
2017-07-01T00:49:17.627Z,18.74
2017-07-01T00:51:45.063Z,18.71
2017-07-01T00:54:12.455Z,18.80
2017-07-01T00:56:39.918Z,18.79
2017-07-01T00:59:07.318Z,18.80
2017-07-01T01:01:34.724Z,18.77
2017-07-01T01:04:02.128Z,18.75
2017-07-01T01:06:29.759Z,18.74
2017-07-01T01:08:57.228Z,18.79
2017-07-01T01:11:24.620Z,18.76
2017-07-01T01:13:52.028Z,18.86
2017-07-01T01:16:19.435Z,18.85
2017-07-01T01:18:46.870Z,18.86
2017-07-01T01:21:14.267Z,18.95
2017-07-01T01:23:41.675Z,18.91
2017-07-01T01:26:09.088Z,18.91
2017-07-01T01:28:36.501Z,18.70
2017-07-01T01:31:03.946Z,18.67
2017-07-01T01:33:31.375Z,18.71
2017-07-01T01:35:58.775Z,18.66
2017-07-01T01:38:26.179Z,18.66
2017-07-01T01:40:53.581Z,18.72
2017-07-01T01:43:21.009Z,18.71
2017-07-01T01:45:48.383Z,18.78
2017-07-01T01:48:15.852Z,18.70
2017-07-01T01:50:43.247Z,18.55
2017-07-01T01:53:10.667Z,18.58
2017-07-01T01:55:38.067Z,18.59
2017-07-01T01:58:05.571Z,18.60
2017-07-01T02:00:32.979Z,18.58
2017-07-01T02:03:00.423Z,18.56
2017-07-01T02:05:27.884Z,18.54
2017-07-01T02:07:55.282Z,18.54
2017-07-01T02:10:22.724Z,18.51
2017-07-01T02:12:50.146Z,18.56
2017-07-01T02:15:18.654Z,18.49
2017-07-01T02:20:57.442Z,18.42
2017-07-01T02:23:24.903Z,18.28
2017-07-01T02:26:09.991Z,18.24
2017-07-01T02:28:37.412Z,18.12
2017-07-01T02:31:04.800Z,18.11
2017-07-01T02:33:32.194Z,18.09
2017-07-01T02:36:25.416Z,17.90
2017-07-01T02:38:52.849Z,18.05
2017-07-01T02:41:20.300Z,18.14
2017-07-01T02:43:47.695Z,18.24
2017-07-01T02:46:17.023Z,18.19
2017-07-01T02:49:14.894Z,18.32
2017-07-01T02:51:42.960Z,18.36
2017-07-01T02:54:10.359Z,18.38
2017-07-01T02:56:38.338Z,18.15
2017-07-01T02:59:11.651Z,18.17
2017-07-01T03:01:39.103Z,18.27
2017-07-01T03:04:06.579Z,18.34
2017-07-01T03:06:33.940Z,18.25
2017-07-01T03:09:01.358Z,18.20
2017-07-01T03:11:28.760Z,18.20
2017-07-01T03:13:56.159Z,18.03
2017-07-01T03:16:23.560Z,17.95
2017-07-01T03:18:50.968Z,17.85
2017-07-01T03:21:18.387Z,17.84
2017-07-01T03:23:45.801Z,17.97
2017-07-01T03:26:13.204Z,17.90
2017-07-01T03:28:40.635Z,17.83
2017-07-01T03:31:08.023Z,17.88
2017-07-01T03:33:53.104Z,17.95
2017-07-01T03:36:21.435Z,18.08
2017-07-01T03:39:00.634Z,17.98
2017-07-01T03:41:39.746Z,18.14
2017-07-01T03:44:28.842Z,18.14
2017-07-01T03:46:56.347Z,18.27
2017-07-01T03:49:24.427Z,18.21
2017-07-01T03:51:51.891Z,18.24
2017-07-01T03:54:19.306Z,18.23
2017-07-01T03:56:46.739Z,18.32
2017-07-01T03:59:14.119Z,18.42
2017-07-01T04:01:41.519Z,18.33
2017-07-01T04:04:08.919Z,18.44
2017-07-01T04:06:36.319Z,18.32
2017-07-01T04:09:03.727Z,18.37
2017-07-01T04:11:31.127Z,18.16
2017-07-01T04:13:58.535Z,18.18
2017-07-01T04:16:25.947Z,18.29
2017-07-01T04:18:56.975Z,18.35
2017-07-01T04:21:24.372Z,18.39
2017-07-01T04:23:51.771Z,18.40
2017-07-01T04:26:19.162Z,18.32
2017-07-01T04:28:46.558Z,18.30
2017-07-01T04:31:13.960Z,18.24
2017-07-01T04:33:41.358Z,18.29
2017-07-01T04:36:08.751Z,18.24
2017-07-01T04:38:44.648Z,18.37
2017-07-01T04:41:12.039Z,18.44
2017-07-01T04:43:48.159Z,18.41
2017-07-01T04:46:15.555Z,18.37
2017-07-01T04:48:59.247Z,18.30
2017-07-01T04:51:46.388Z,18.43
2017-07-01T04:54:34.355Z,18.36
2017-07-01T04:57:07.368Z,18.26
2017-07-01T04:59:43.195Z,18.11
2017-07-01T05:02:10.591Z,18.19
2017-07-01T05:04:48.416Z,18.12
2017-07-01T05:07:27.570Z,18.09
2017-07-01T05:10:15.431Z,18.15
2017-07-01T05:12:46.434Z,18.12
2017-07-01T05:15:25.489Z,18.08
2017-07-01T05:17:52.883Z,18.13
2017-07-01T05:20:28.258Z,18.09
2017-07-01T05:23:06.151Z,18.11
2017-07-01T05:25:49.823Z,18.13
2017-07-01T05:28:17.207Z,18.17
2017-07-01T05:31:15.659Z,18.28
2017-07-01T05:33:44.735Z,18.05
2017-07-01T05:36:33.619Z,18.04
2017-07-01T05:39:07.481Z,18.03
2017-07-01T05:41:35.466Z,17.95
2017-07-01T05:44:03.539Z,17.93
2017-07-01T05:46:32.386Z,17.95
2017-07-01T05:49:02.334Z,17.93
2017-07-01T05:51:33.244Z,17.98
2017-07-01T05:54:00.936Z,18.04
2017-07-01T05:56:28.347Z,18.00
2017-07-01T05:58:55.743Z,17.91
2017-07-01T06:01:23.151Z,17.93
2017-07-01T06:03:50.542Z,17.96
2017-07-01T06:06:19.706Z,18.05
2017-07-01T06:08:47.104Z,17.92
2017-07-01T06:11:17.987Z,17.98
2017-07-01T06:14:01.186Z,17.86
2017-07-01T06:16:35.359Z,17.86
2017-07-01T06:19:03.325Z,17.91
2017-07-01T06:21:37.035Z,17.97
2017-07-01T06:24:26.035Z,17.79
2017-07-01T06:26:56.024Z,17.91
2017-07-01T06:29:33.064Z,17.97
2017-07-01T06:32:01.979Z,17.92
2017-07-01T06:37:53.849Z,18.02
2017-07-01T06:40:39.514Z,17.91
2017-07-01T06:43:06.943Z,17.90
2017-07-01T06:45:34.334Z,17.91
2017-07-01T06:48:01.741Z,17.94
2017-07-01T06:50:29.139Z,17.94
2017-07-01T06:52:56.539Z,17.90
2017-07-01T06:55:33.842Z,18.00
2017-07-01T06:58:01.238Z,18.06
2017-07-01T07:00:28.648Z,18.08
2017-07-01T07:02:56.039Z,18.03
2017-07-01T07:05:23.443Z,18.14
2017-07-01T07:07:51.954Z,18.04
2017-07-01T07:10:19.440Z,18.03
2017-07-01T07:12:46.834Z,18.13
2017-07-01T07:15:14.235Z,18.09
2017-07-01T07:17:41.631Z,18.13
2017-07-01T07:20:09.044Z,18.13
2017-07-01T07:22:36.435Z,18.11
2017-07-01T07:25:03.831Z,18.24
2017-07-01T07:27:31.223Z,18.24
2017-07-01T07:29:58.633Z,18.18
2017-07-01T07:32:26.031Z,18.20
2017-07-01T07:34:53.443Z,18.30
2017-07-01T07:37:20.836Z,18.27
2017-07-01T07:39:48.247Z,18.18
2017-07-01T07:42:15.640Z,18.21
2017-07-01T07:44:43.051Z,18.21
2017-07-01T07:47:10.450Z,18.14
2017-07-01T07:49:37.855Z,18.17
2017-07-01T07:52:05.257Z,18.29
2017-07-01T07:54:32.673Z,18.18
2017-07-01T07:57:00.074Z,18.15
2017-07-01T07:59:27.463Z,18.28
2017-07-01T08:01:54.873Z,18.15
2017-07-01T08:04:22.487Z,18.09
2017-07-01T08:06:49.895Z,17.91
2017-07-01T08:09:17.305Z,17.91
2017-07-01T08:11:44.715Z,17.93
2017-07-01T08:14:12.118Z,18.01
2017-07-01T08:16:39.527Z,18.08
2017-07-01T08:19:06.923Z,18.05
2017-07-01T08:21:34.667Z,18.13
2017-07-01T08:24:02.068Z,18.32
2017-07-01T08:26:29.468Z,18.15
2017-07-01T08:28:56.859Z,18.20
2017-07-01T08:31:24.251Z,18.25
2017-07-01T08:33:51.636Z,18.28
2017-07-01T08:36:19.035Z,18.25
2017-07-01T08:38:46.675Z,18.32
2017-07-01T08:41:14.073Z,18.40
2017-07-01T08:43:41.451Z,18.27
2017-07-01T08:46:08.855Z,18.17
2017-07-01T08:48:36.249Z,18.08
2017-07-01T08:51:03.874Z,18.20
2017-07-01T08:53:31.263Z,18.33
2017-07-01T08:55:58.663Z,18.35
2017-07-01T08:58:26.059Z,18.27
2017-07-01T09:00:53.455Z,18.38
2017-07-01T09:03:20.856Z,18.43
2017-07-01T09:05:48.310Z,18.47
2017-07-01T09:08:15.706Z,18.51
2017-07-01T09:10:43.102Z,18.53
2017-07-01T09:13:10.499Z,18.52
2017-07-01T09:15:37.882Z,18.65
2017-07-01T09:18:05.279Z,18.60
2017-07-01T09:20:32.696Z,18.60
2017-07-01T09:23:00.087Z,18.68
2017-07-01T09:25:27.478Z,18.66
2017-07-01T09:27:54.872Z,18.68
2017-07-01T09:30:22.283Z,18.56
2017-07-01T09:32:49.679Z,18.67
2017-07-01T09:35:17.076Z,18.77
2017-07-01T09:37:44.467Z,18.84
2017-07-01T09:40:11.859Z,18.93
2017-07-01T09:42:39.251Z,19.03
2017-07-01T09:45:06.685Z,18.96
2017-07-01T09:47:34.056Z,18.87
2017-07-01T09:50:01.443Z,18.82
2017-07-01T09:52:28.842Z,18.83
2017-07-01T09:54:56.231Z,18.75
2017-07-01T09:57:23.638Z,18.78
2017-07-01T09:59:51.029Z,18.84
2017-07-01T10:02:18.419Z,18.74
2017-07-01T10:04:45.823Z,18.70
2017-07-01T10:07:13.260Z,18.73
2017-07-01T10:09:40.664Z,18.77
2017-07-01T10:12:08.075Z,18.84
2017-07-01T10:14:35.466Z,18.83
2017-07-01T10:17:02.847Z,18.88
2017-07-01T10:19:30.269Z,18.93
2017-07-01T10:21:57.859Z,18.97
2017-07-01T10:24:25.262Z,19.00
2017-07-01T10:26:52.647Z,19.05
2017-07-01T10:29:20.042Z,19.01
2017-07-01T10:31:47.431Z,19.00
2017-07-01T10:34:14.829Z,18.95
2017-07-01T10:36:42.236Z,18.85
2017-07-01T10:39:09.629Z,18.91
2017-07-01T10:41:37.016Z,18.84
2017-07-01T10:44:04.415Z,18.88
2017-07-01T10:46:31.807Z,18.86
2017-07-01T10:48:59.244Z,18.91
2017-07-01T10:51:26.619Z,18.87
2017-07-01T10:53:54.035Z,18.73
2017-07-01T10:56:21.428Z,18.57
2017-07-01T10:58:48.830Z,18.48
2017-07-01T11:01:16.222Z,18.54
2017-07-01T11:03:43.636Z,18.56
2017-07-01T11:06:11.026Z,18.59
2017-07-01T11:08:38.447Z,18.62
2017-07-01T11:11:05.840Z,18.52
2017-07-01T11:13:33.250Z,18.58
2017-07-01T11:16:00.647Z,18.58
2017-07-01T11:18:28.055Z,18.58
2017-07-01T11:20:55.450Z,18.45
2017-07-01T11:23:22.846Z,18.38
2017-07-01T11:25:50.247Z,18.44
2017-07-01T11:28:17.637Z,18.49
2017-07-01T11:30:45.043Z,18.62
2017-07-01T11:33:12.440Z,18.75
2017-07-01T11:35:39.830Z,18.77
2017-07-01T11:38:07.436Z,18.73
2017-07-01T11:40:34.836Z,18.83
2017-07-01T11:43:02.224Z,18.83
2017-07-01T11:45:29.616Z,18.85
2017-07-01T11:47:56.999Z,18.97
2017-07-01T11:50:24.400Z,18.92
2017-07-01T11:52:51.783Z,18.83
2017-07-01T11:55:19.191Z,18.96
2017-07-01T11:57:46.571Z,18.95
2017-07-01T12:00:13.967Z,18.95
2017-07-01T12:02:41.356Z,18.95
2017-07-01T12:05:08.744Z,18.94
2017-07-01T12:07:36.140Z,18.77
2017-07-01T12:10:03.535Z,18.69
2017-07-01T12:12:30.926Z,18.64
2017-07-01T12:14:58.343Z,18.73
2017-07-01T12:17:25.740Z,18.87
2017-07-01T12:19:53.136Z,18.82
2017-07-01T12:22:20.531Z,18.97
2017-07-01T12:24:47.936Z,19.03
2017-07-01T12:27:15.335Z,18.98
2017-07-01T12:29:42.743Z,19.07
2017-07-01T12:32:10.140Z,19.08
2017-07-01T12:34:37.535Z,19.12
2017-07-01T12:37:04.935Z,19.01
2017-07-01T12:39:32.371Z,18.96
2017-07-01T12:41:59.771Z,19.05
2017-07-01T12:44:27.187Z,18.99
2017-07-01T12:46:54.586Z,18.95
2017-07-01T12:49:21.991Z,18.81
2017-07-01T12:51:49.397Z,18.49
2017-07-01T12:54:16.787Z,18.24
2017-07-01T12:56:44.176Z,18.23
2017-07-01T12:59:11.566Z,18.26
2017-07-01T13:01:38.959Z,18.20
2017-07-01T13:04:06.354Z,18.33
2017-07-01T13:06:33.749Z,18.37
2017-07-01T13:09:01.143Z,18.49
2017-07-01T13:11:28.530Z,18.52
2017-07-01T13:13:56.139Z,18.70
2017-07-01T13:16:23.538Z,18.71
2017-07-01T13:18:50.927Z,18.65
2017-07-01T13:21:18.324Z,18.81
2017-07-01T13:23:45.923Z,18.76
2017-07-01T13:26:13.323Z,18.74
2017-07-01T13:28:40.711Z,18.76
2017-07-01T13:31:08.107Z,18.72
2017-07-01T13:33:35.498Z,18.60
2017-07-01T13:36:02.891Z,18.73
2017-07-01T13:38:30.291Z,18.70
2017-07-01T13:40:57.679Z,18.68
2017-07-01T13:43:25.079Z,18.68
2017-07-01T13:45:52.479Z,18.63
2017-07-01T13:48:19.871Z,18.45
2017-07-01T13:50:47.259Z,18.44
2017-07-01T13:53:14.648Z,18.54
2017-07-01T13:55:42.043Z,18.55
2017-07-01T13:58:09.435Z,18.53
2017-07-01T14:00:36.831Z,18.56
2017-07-01T14:03:04.235Z,18.69
2017-07-01T14:05:31.631Z,18.65
2017-07-01T14:07:59.035Z,18.59
2017-07-01T14:10:26.637Z,18.52
2017-07-01T14:12:54.064Z,18.43
2017-07-01T14:15:21.451Z,18.43
2017-07-01T14:17:48.859Z,18.48
2017-07-01T14:20:16.248Z,18.33
2017-07-01T14:22:43.638Z,18.25
2017-07-01T14:25:11.058Z,18.23
2017-07-01T14:27:38.438Z,18.27
2017-07-01T14:30:05.831Z,18.38
2017-07-01T14:32:33.225Z,18.37
2017-07-01T14:35:00.624Z,18.52
2017-07-01T14:37:28.031Z,18.49
2017-07-01T14:39:55.422Z,18.43
2017-07-01T14:42:22.839Z,18.51
2017-07-01T14:44:50.218Z,18.52
2017-07-01T14:47:17.617Z,18.60
2017-07-01T14:49:45.016Z,18.74
2017-07-01T14:52:12.406Z,18.69
2017-07-01T14:54:39.811Z,18.82
2017-07-01T14:57:07.198Z,18.83
2017-07-01T14:59:34.811Z,18.71
2017-07-01T15:02:02.203Z,18.67
2017-07-01T15:04:29.619Z,18.65
2017-07-01T15:06:57.007Z,18.75
2017-07-01T15:09:24.411Z,18.92
2017-07-01T15:11:51.811Z,18.95
2017-07-01T15:14:19.224Z,18.77
2017-07-01T15:16:46.632Z,18.78
2017-07-01T15:19:14.042Z,18.89
2017-07-01T15:21:41.426Z,18.81
2017-07-01T15:24:08.839Z,18.75
2017-07-01T15:26:36.232Z,18.78
2017-07-01T15:29:03.630Z,18.74
2017-07-01T15:31:33.075Z,18.72
2017-07-01T15:34:00.695Z,18.73
2017-07-01T15:36:28.086Z,18.63
2017-07-01T15:38:55.491Z,18.61
2017-07-01T15:41:22.891Z,18.67
2017-07-01T15:43:50.305Z,18.69
2017-07-01T15:46:17.704Z,18.79
2017-07-01T15:48:45.103Z,18.93
2017-07-01T15:51:12.716Z,19.03
2017-07-01T15:53:40.124Z,19.02
2017-07-01T15:56:07.521Z,19.07
2017-07-01T15:58:34.911Z,19.00
2017-07-01T16:01:13.910Z,19.00
2017-07-01T16:03:41.311Z,19.06
2017-07-01T16:06:08.711Z,19.10
2017-07-01T16:08:36.107Z,19.12
2017-07-01T16:11:03.527Z,19.27
2017-07-01T16:13:30.942Z,19.38
2017-07-01T16:15:58.339Z,19.34
2017-07-01T16:18:25.735Z,19.37
2017-07-01T16:20:53.151Z,19.26
2017-07-01T16:23:21.520Z,19.39
2017-07-01T16:25:48.919Z,19.34
2017-07-01T16:28:16.321Z,19.26
2017-07-01T16:30:43.723Z,19.23
2017-07-01T16:33:11.118Z,19.32
2017-07-01T16:35:38.518Z,19.39
2017-07-01T16:38:05.923Z,19.45
2017-07-01T16:40:33.327Z,19.43
2017-07-01T16:43:00.739Z,19.47
2017-07-01T16:45:28.134Z,19.56
2017-07-01T16:47:55.542Z,19.71
2017-07-01T16:50:22.946Z,19.74
2017-07-01T16:52:50.355Z,19.68
2017-07-01T16:55:17.756Z,19.58
2017-07-01T16:57:45.179Z,19.65
2017-07-01T17:00:12.574Z,19.73
2017-07-01T17:02:39.971Z,19.77
2017-07-01T17:05:07.372Z,19.88
2017-07-01T17:07:34.763Z,19.97
2017-07-01T17:10:02.188Z,20.01
2017-07-01T17:12:29.607Z,20.16
2017-07-01T17:14:56.995Z,20.23
2017-07-01T17:17:24.403Z,20.36
2017-07-01T17:19:51.800Z,20.49
2017-07-01T17:22:19.207Z,20.50
2017-07-01T17:24:46.599Z,20.60
2017-07-01T17:27:14.005Z,20.60
2017-07-01T17:29:41.399Z,20.70
2017-07-01T17:32:08.795Z,20.66
2017-07-01T17:34:36.187Z,20.68
2017-07-01T17:37:03.583Z,20.75
2017-07-01T17:39:30.990Z,20.69
2017-07-01T17:41:58.394Z,20.79
2017-07-01T17:44:25.780Z,20.76
2017-07-01T17:46:53.382Z,20.71
2017-07-01T17:49:20.775Z,20.77
2017-07-01T17:51:48.389Z,20.75
2017-07-01T17:54:15.791Z,20.70
2017-07-01T17:56:43.231Z,20.75
2017-07-01T17:59:10.627Z,20.80
2017-07-01T18:01:38.026Z,20.78
2017-07-01T18:04:05.427Z,20.85
2017-07-01T18:06:32.822Z,20.90
2017-07-01T18:09:00.220Z,20.95
2017-07-01T18:11:27.618Z,20.91
2017-07-01T18:13:55.031Z,20.93
2017-07-01T18:16:22.439Z,20.88
2017-07-01T18:18:50.865Z,20.84
2017-07-01T18:21:18.258Z,20.74
2017-07-01T18:23:45.665Z,20.65
2017-07-01T18:26:13.055Z,20.61
2017-07-01T18:28:40.460Z,20.61
2017-07-01T18:31:07.852Z,20.60
2017-07-01T18:33:35.255Z,20.48
2017-07-01T18:36:02.646Z,20.33
2017-07-01T18:38:30.091Z,20.17
2017-07-01T18:40:57.495Z,20.20
2017-07-01T18:43:24.899Z,20.13
2017-07-01T18:45:52.514Z,20.12
2017-07-01T18:48:19.926Z,20.08
2017-07-01T18:50:47.323Z,20.06
2017-07-01T18:53:14.726Z,20.05
2017-07-01T18:55:42.127Z,19.97
2017-07-01T18:58:09.539Z,19.98
2017-07-01T19:00:36.938Z,19.93
2017-07-01T19:03:04.345Z,19.98
2017-07-01T19:05:31.745Z,19.92
2017-07-01T19:07:59.152Z,19.89
2017-07-01T19:10:26.547Z,19.94
2017-07-01T19:12:53.963Z,19.85
2017-07-01T19:15:21.362Z,19.81
2017-07-01T19:17:49.631Z,19.74
2017-07-01T19:20:17.020Z,19.68
2017-07-01T19:22:44.421Z,19.63
2017-07-01T19:25:11.816Z,19.49
2017-07-01T19:27:39.219Z,19.43
2017-07-01T19:30:06.826Z,19.37
2017-07-01T19:32:34.230Z,19.31
2017-07-01T19:35:01.631Z,19.24
2017-07-01T19:37:29.096Z,19.22
2017-07-01T19:39:56.504Z,19.15
2017-07-01T19:45:00.479Z,19.00
2017-07-01T19:47:27.875Z,18.91
2017-07-01T19:49:55.295Z,18.82
2017-07-01T19:52:22.691Z,18.58
2017-07-01T19:54:50.090Z,18.49
2017-07-01T19:57:17.490Z,18.37
2017-07-01T19:59:44.899Z,18.34
2017-07-01T20:02:12.296Z,18.30
2017-07-01T20:04:39.695Z,18.28
2017-07-01T20:07:07.179Z,18.21
2017-07-01T20:09:34.566Z,18.12
2017-07-01T20:12:01.960Z,17.95
2017-07-01T20:14:29.369Z,17.92
2017-07-01T20:16:56.755Z,17.86
2017-07-01T20:19:24.159Z,17.85
2017-07-01T20:21:51.555Z,17.84
2017-07-01T20:24:18.960Z,17.86
2017-07-01T20:26:46.351Z,17.80
2017-07-01T20:29:13.764Z,17.79
2017-07-01T20:31:41.159Z,17.76
2017-07-01T20:34:08.563Z,17.83
2017-07-01T20:36:35.963Z,17.82
2017-07-01T20:39:03.370Z,17.75
2017-07-01T20:41:30.763Z,17.70
2017-07-01T20:43:58.181Z,17.68
2017-07-01T20:46:25.573Z,17.69
2017-07-01T20:48:52.974Z,17.57
2017-07-01T20:51:20.371Z,17.44
2017-07-01T20:53:47.786Z,17.44
2017-07-01T20:56:15.204Z,17.33
2017-07-01T20:58:42.612Z,17.14
2017-07-01T21:01:10.015Z,16.94
2017-07-01T21:03:37.424Z,16.73
2017-07-01T21:06:04.824Z,16.64
2017-07-01T21:08:32.220Z,16.52
2017-07-01T21:10:59.631Z,16.50
2017-07-01T21:13:27.239Z,16.49
2017-07-01T21:15:54.647Z,16.50
2017-07-01T21:18:22.050Z,16.45
2017-07-01T21:20:49.479Z,16.28
2017-07-01T21:23:16.879Z,16.20
2017-07-01T21:25:44.283Z,16.12
2017-07-01T21:28:11.682Z,16.11
2017-07-01T21:30:39.103Z,16.07
2017-07-01T21:33:06.507Z,16.02
2017-07-01T21:35:33.911Z,16.00
2017-07-01T21:38:01.318Z,15.93
2017-07-01T21:40:28.721Z,15.92
2017-07-01T21:42:56.152Z,15.76
2017-07-01T21:45:23.544Z,15.69
2017-07-01T21:47:50.947Z,15.70
2017-07-01T21:50:18.362Z,15.62
2017-07-01T21:52:45.759Z,15.61
2017-07-01T21:55:13.175Z,15.43
2017-07-01T21:57:40.577Z,15.47
2017-07-01T22:00:07.971Z,15.48
2017-07-01T22:02:35.367Z,15.45
2017-07-01T22:05:02.771Z,15.43
2017-07-01T22:07:30.171Z,15.47
2017-07-01T22:09:57.578Z,15.46
2017-07-01T22:12:24.998Z,15.50
2017-07-01T22:14:52.385Z,15.52
2017-07-01T22:17:19.800Z,15.48
2017-07-01T22:19:47.195Z,15.46
2017-07-01T22:22:14.636Z,15.42
2017-07-01T22:24:42.043Z,15.48
2017-07-01T22:27:09.451Z,15.47
2017-07-01T22:29:36.855Z,15.49
2017-07-01T22:32:04.259Z,15.57
2017-07-01T22:34:31.659Z,15.52
2017-07-01T22:36:59.065Z,15.48
2017-07-01T22:39:26.458Z,15.37
2017-07-01T22:41:53.867Z,15.42
2017-07-01T22:44:21.262Z,15.44
2017-07-01T22:46:48.679Z,15.41
2017-07-01T22:49:16.079Z,15.45
2017-07-01T22:51:43.487Z,15.33
2017-07-01T22:54:10.882Z,15.28
2017-07-01T22:56:38.295Z,15.35
2017-07-01T22:59:05.698Z,15.47
2017-07-01T23:01:33.111Z,15.46
2017-07-01T23:04:00.503Z,15.47
2017-07-01T23:06:27.916Z,15.53
2017-07-01T23:08:55.310Z,15.45
2017-07-01T23:11:22.726Z,15.48
2017-07-01T23:13:50.136Z,15.54
2017-07-01T23:16:17.547Z,15.53
2017-07-01T23:18:44.951Z,15.51
2017-07-01T23:21:12.367Z,15.48
2017-07-01T23:23:39.770Z,15.53
2017-07-01T23:26:07.171Z,15.48
2017-07-01T23:28:34.592Z,15.44
2017-07-01T23:31:01.987Z,15.41
2017-07-01T23:33:29.400Z,15.35
2017-07-01T23:35:56.807Z,15.46
2017-07-01T23:38:24.211Z,15.44
2017-07-01T23:40:51.607Z,15.52
2017-07-01T23:43:19.011Z,15.55
2017-07-01T23:45:46.406Z,15.45
2017-07-01T23:48:13.819Z,15.45
2017-07-01T23:50:41.231Z,15.49
2017-07-01T23:53:08.640Z,15.46
2017-07-01T23:55:36.319Z,15.45
2017-07-01T23:58:03.727Z,15.53
